Grisdale, Washington
Current Conditions -  °F | °C
As of 12:53 AM on Sunday 21 Dec 2014 (Local Time) from KSHN Reporting Station
Scattered Clouds Scattered Clouds  
Wind Chill: 51°   Ceiling: Unl
Heat Index: 51°   Visibility: 10mi
Dew Point: 47°   Wind: 17mph
Humidity: 86%   Direction: 240°WSW
Pressure: 29.63"   Gusts: 30mph
Location:  47.555°N, 123.746°W
Report Text: KSHN 210853Z AUTO 24015G26KT 10SM SCT055 11/08 A2963 RMK AO2 PK WND 25028/0836 RAE47 SLP035 P0001 60045 T01060083 53041
Loading
Personal Weather Stations






























Interactive Weather Map New forecast layout! Learn more

10-Day Weather Forecast

Advertisements
Track Severe Weather on mobile